sensor_id;sensor_type;location;lat;lon;timestamp;pressure;altitude;pressure_sealevel;temperature;humidity
31681;BME280;18281;51.364;9.566;2023-02-28T00:01:13;101367.88;;;-2.41;100.00
31681;BME280;18281;51.364;9.566;2023-02-28T00:03:39;101373.81;;;-2.45;100.00
31681;BME280;18281;51.364;9.566;2023-02-28T00:06:06;101371.19;;;-2.47;100.00
31681;BME280;18281;51.364;9.566;2023-02-28T00:08:32;101368.72;;;-2.42;100.00
31681;BME280;18281;51.364;9.566;2023-02-28T00:11:05;101378.09;;;-2.44;100.00
31681;BME280;18281;51.364;9.566;2023-02-28T00:13:33;101372.06;;;-2.46;100.00
31681;BME280;18281;51.364;9.566;2023-02-28T00:16:10;101372.94;;;-2.44;100.00
31681;BME280;18281;51.364;9.566;2023-02-28T00:18:37;101373.84;;;-2.42;100.00
31681;BME280;18281;51.364;9.566;2023-02-28T00:21:03;101375.53;;;-2.43;100.00
31681;BME280;18281;51.364;9.566;2023-02-28T00:23:28;101380.66;;;-2.44;100.00
31681;BME280;18281;51.364;9.566;2023-02-28T00:25:54;101381.53;;;-2.44;100.00
31681;BME280;18281;51.364;9.566;2023-02-28T00:28:20;101378.06;;;-2.46;100.00
31681;BME280;18281;51.364;9.566;2023-02-28T00:30:45;101380.59;;;-2.47;100.00
31681;BME280;18281;51.364;9.566;2023-02-28T00:33:11;101380.56;;;-2.49;100.00
31681;BME280;18281;51.364;9.566;2023-02-28T00:35:37;101384.00;;;-2.49;100.00
31681;BME280;18281;51.364;9.566;2023-02-28T00:38:02;101379.69;;;-2.50;100.00
31681;BME280;18281;51.364;9.566;2023-02-28T00:40:28;101377.97;;;-2.52;100.00
31681;BME280;18281;51.364;9.566;2023-02-28T00:42:54;101381.38;;;-2.52;100.00
31681;BME280;18281;51.364;9.566;2023-02-28T00:45:19;101377.13;;;-2.50;100.00
31681;BME280;18281;51.364;9.566;2023-02-28T00:47:45;101378.88;;;-2.49;100.00
31681;BME280;18281;51.364;9.566;2023-02-28T00:50:12;101383.13;;;-2.51;100.00
31681;BME280;18281;51.364;9.566;2023-02-28T00:52:37;101384.81;;;-2.51;100.00
31681;BME280;18281;51.364;9.566;2023-02-28T00:55:03;101382.19;;;-2.54;100.00
31681;BME280;18281;51.364;9.566;2023-02-28T00:57:28;101375.28;;;-2.55;100.00
31681;BME280;18281;51.364;9.566;2023-02-28T00:59:53;101379.59;;;-2.56;100.00
31681;BME280;18281;51.364;9.566;2023-02-28T01:02:20;101383.91;;;-2.55;100.00
31681;BME280;18281;51.364;9.566;2023-02-28T01:04:46;101380.41;;;-2.57;100.00
31681;BME280;18281;51.364;9.566;2023-02-28T01:07:12;101380.41;;;-2.57;100.00
31681;BME280;18281;51.364;9.566;2023-02-28T01:09:38;101380.38;;;-2.58;100.00
31681;BME280;18281;51.364;9.566;2023-02-28T01:12:03;101382.03;;;-2.62;100.00
31681;BME280;18281;51.364;9.566;2023-02-28T01:14:28;101379.44;;;-2.62;100.00
31681;BME280;18281;51.364;9.566;2023-02-28T01:16:54;101377.00;;;-2.57;100.00
31681;BME280;18281;51.364;9.566;2023-02-28T01:19:19;101374.44;;;-2.56;100.00
31681;BME280;18281;51.364;9.566;2023-02-28T01:21:44;101380.44;;;-2.55;100.00
31681;BME280;18281;51.364;9.566;2023-02-28T01:24:10;101374.44;;;-2.56;100.00
31681;BME280;18281;51.364;9.566;2023-02-28T01:26:35;101374.41;;;-2.57;100.00
31681;BME280;18281;51.364;9.566;2023-02-28T01:29:01;101375.28;;;-2.57;100.00
31681;BME280;18281;51.364;9.566;2023-02-28T01:31:26;101365.78;;;-2.59;100.00
31681;BME280;18281;51.364;9.566;2023-02-28T01:33:51;101368.38;;;-2.58;100.00
31681;BME280;18281;51.364;9.566;2023-02-28T01:36:20;101370.97;;;-2.58;100.00
31681;BME280;18281;51.364;9.566;2023-02-28T01:38:46;101370.06;;;-2.60;100.00
31681;BME280;18281;51.364;9.566;2023-02-28T01:46:08;101365.56;;;-2.70;100.00
31681;BME280;18281;51.364;9.566;2023-02-28T01:48:37;101362.13;;;-2.72;100.00
31681;BME280;18281;51.364;9.566;2023-02-28T01:51:08;101363.78;;;-2.73;100.00
31681;BME280;18281;51.364;9.566;2023-02-28T01:53:41;101362.84;;;-2.76;100.00
31681;BME280;18281;51.364;9.566;2023-02-28T01:56:10;101357.78;;;-2.73;100.00
31681;BME280;18281;51.364;9.566;2023-02-28T01:58:37;101355.13;;;-2.76;100.00
31681;BME280;18281;51.364;9.566;2023-02-28T02:01:02;101353.44;;;-2.77;100.00
31681;BME280;18281;51.364;9.566;2023-02-28T02:03:29;101351.69;;;-2.78;100.00
31681;BME280;18281;51.364;9.566;2023-02-28T02:05:56;101358.53;;;-2.79;100.00
31681;BME280;18281;51.364;9.566;2023-02-28T02:08:24;101349.84;;;-2.84;100.00
31681;BME280;18281;51.364;9.566;2023-02-28T02:10:52;101351.50;;;-2.86;100.00
31681;BME280;18281;51.364;9.566;2023-02-28T02:35:30;101335.06;;;-2.94;100.00
31681;BME280;18281;51.364;9.566;2023-02-28T02:38:02;101342.72;;;-2.97;100.00
31681;BME280;18281;51.364;9.566;2023-02-28T02:40:39;101340.97;;;-2.99;100.00
31681;BME280;18281;51.364;9.566;2023-02-28T02:43:13;101338.44;;;-2.97;100.00
31681;BME280;18281;51.364;9.566;2023-02-28T02:45:54;101334.13;;;-2.98;100.00
31681;BME280;18281;51.364;9.566;2023-02-28T02:48:25;101344.38;;;-3.00;100.00
31681;BME280;18281;51.364;9.566;2023-02-28T02:50:54;101342.72;;;-2.97;100.00
31681;BME280;18281;51.364;9.566;2023-02-28T02:53:25;101344.38;;;-3.00;100.00
31681;BME280;18281;51.364;9.566;2023-02-28T02:55:54;101337.50;;;-3.01;100.00
31681;BME280;18281;51.364;9.566;2023-02-28T02:58:25;101337.47;;;-3.02;100.00
31681;BME280;18281;51.364;9.566;2023-02-28T03:00:54;101344.31;;;-3.03;100.00
31681;BME280;18281;51.364;9.566;2023-02-28T03:03:21;101345.13;;;-3.05;100.00
31681;BME280;18281;51.364;9.566;2023-02-28T03:05:55;101343.41;;;-3.05;100.00
31681;BME280;18281;51.364;9.566;2023-02-28T03:08:21;101336.59;;;-3.03;100.00
31681;BME280;18281;51.364;9.566;2023-02-28T03:10:52;101338.28;;;-3.03;100.00
31681;BME280;18281;51.364;9.566;2023-02-28T03:13:45;101344.28;;;-3.04;100.00
31681;BME280;18281;51.364;9.566;2023-02-28T03:25:14;101334.84;;;-3.05;100.00
31681;BME280;18281;51.364;9.566;2023-02-28T03:30:23;101325.38;;;-3.06;100.00
31681;BME280;18281;51.364;9.566;2023-02-28T03:32:57;101331.34;;;-3.07;100.00
31681;BME280;18281;51.364;9.566;2023-02-28T03:35:30;101334.78;;;-3.08;100.00
31681;BME280;18281;51.364;9.566;2023-02-28T03:38:03;101346.75;;;-3.07;100.00
31681;BME280;18281;51.364;9.566;2023-02-28T03:40:33;101337.41;;;-3.05;100.00
31681;BME280;18281;51.364;9.566;2023-02-28T03:43:01;101334.88;;;-3.02;100.00
31681;BME280;18281;51.364;9.566;2023-02-28T03:45:32;101340.03;;;-3.02;100.00
31681;BME280;18281;51.364;9.566;2023-02-28T03:48:09;101341.63;;;-3.07;100.00
31681;BME280;18281;51.364;9.566;2023-02-28T03:50:38;101346.75;;;-3.07;100.00
31681;BME280;18281;51.364;9.566;2023-02-28T03:53:11;101339.81;;;-3.11;100.00
31681;BME280;18281;51.364;9.566;2023-02-28T03:55:43;101337.28;;;-3.10;100.00
31681;BME280;18281;51.364;9.566;2023-02-28T03:58:22;101343.31;;;-3.09;100.00
31681;BME280;18281;51.364;9.566;2023-02-28T04:00:55;101333.03;;;-3.09;100.00
31681;BME280;18281;51.364;9.566;2023-02-28T04:03:21;101338.13;;;-3.12;100.00
31681;BME280;18281;51.364;9.566;2023-02-28T04:05:54;101348.44;;;-3.09;100.00
31681;BME280;18281;51.364;9.566;2023-02-28T04:08:21;101345.84;;;-3.11;100.00
31681;BME280;18281;51.364;9.566;2023-02-28T04:10:54;101345.81;;;-3.12;100.00
31681;BME280;18281;51.364;9.566;2023-02-28T04:13:21;101350.97;;;-3.12;100.00
31681;BME280;18281;51.364;9.566;2023-02-28T04:15:46;101344.06;;;-3.13;100.00
31681;BME280;18281;51.364;9.566;2023-02-28T04:18:12;101346.66;;;-3.13;100.00
31681;BME280;18281;51.364;9.566;2023-02-28T04:20:37;101348.28;;;-3.17;100.00
31681;BME280;18281;51.364;9.566;2023-02-28T04:23:02;101341.41;;;-3.17;100.00
31681;BME280;18281;51.364;9.566;2023-02-28T04:25:28;101352.53;;;-3.19;100.00
31681;BME280;18281;51.364;9.566;2023-02-28T04:27:53;101353.34;;;-3.20;100.00
31681;BME280;18281;51.364;9.566;2023-02-28T04:30:19;101344.75;;;-3.21;100.00
31681;BME280;18281;51.364;9.566;2023-02-28T04:32:44;101355.03;;;-3.21;100.00
31681;BME280;18281;51.364;9.566;2023-02-28T04:35:09;101356.78;;;-3.20;100.00
31681;BME280;18281;51.364;9.566;2023-02-28T04:37:35;101353.53;;;-2.71;100.00
31681;BME280;18281;51.364;9.566;2023-02-28T04:40:02;101352.53;;;-0.79;100.00
31681;BME280;18281;51.364;9.566;2023-02-28T04:42:28;101360.53;;;0.23;100.00
31681;BME280;18281;51.364;9.566;2023-02-28T04:45:00;101358.28;;;-0.28;100.00
31681;BME280;18281;51.364;9.566;2023-02-28T04:47:25;101362.25;;;-0.58;100.00
31681;BME280;18281;51.364;9.566;2023-02-28T04:49:50;101352.28;;;-0.96;100.00
31681;BME280;18281;51.364;9.566;2023-02-28T04:52:16;101354.09;;;-1.47;100.00
31681;BME280;18281;51.364;9.566;2023-02-28T04:54:41;101356.97;;;-1.82;100.00
31681;BME280;18281;51.364;9.566;2023-02-28T04:57:06;101350.66;;;-2.00;100.00
31681;BME280;18281;51.364;9.566;2023-02-28T04:59:32;101354.69;;;-2.12;100.00
31681;BME280;18281;51.364;9.566;2023-02-28T05:01:58;101353.66;;;-2.24;100.00
31681;BME280;18281;51.364;9.566;2023-02-28T05:04:23;101356.88;;;-2.33;100.00
31681;BME280;18281;51.364;9.566;2023-02-28T05:06:48;101360.16;;;-2.41;100.00
31681;BME280;18281;51.364;9.566;2023-02-28T05:09:14;101364.41;;;-2.43;100.00
31681;BME280;18281;51.364;9.566;2023-02-28T05:11:39;101372.75;;;-2.54;100.00
31681;BME280;18281;51.364;9.566;2023-02-28T05:14:09;101372.63;;;-2.61;100.00
31681;BME280;18281;51.364;9.566;2023-02-28T05:16:35;101375.03;;;-2.69;100.00
31681;BME280;18281;51.364;9.566;2023-02-28T05:19:01;101374.91;;;-2.74;100.00
31681;BME280;18281;51.364;9.566;2023-02-28T05:21:30;101372.25;;;-2.78;100.00
31681;BME280;18281;51.364;9.566;2023-02-28T05:24:03;101378.97;;;-2.85;100.00
31681;BME280;18281;51.364;9.566;2023-02-28T05:26:30;101375.47;;;-2.87;100.00
31681;BME280;18281;51.364;9.566;2023-02-28T05:28:56;101368.56;;;-2.90;100.00
31681;BME280;18281;51.364;9.566;2023-02-28T05:31:22;101372.75;;;-2.95;100.00
31681;BME280;18281;51.364;9.566;2023-02-28T05:33:47;101373.56;;;-2.97;100.00
31681;BME280;18281;51.364;9.566;2023-02-28T05:36:13;101371.78;;;-3.00;100.00
31681;BME280;18281;51.364;9.566;2023-02-28T05:38:38;101375.13;;;-3.04;100.00
31681;BME280;18281;51.364;9.566;2023-02-28T05:41:10;101371.63;;;-3.06;100.00
31681;BME280;18281;51.364;9.566;2023-02-28T05:43:36;101372.41;;;-3.10;100.00
31681;BME280;18281;51.364;9.566;2023-02-28T05:46:07;101372.47;;;-3.07;100.00
31681;BME280;18281;51.364;9.566;2023-02-28T05:48:34;101368.22;;;-3.07;100.00
31681;BME280;18281;51.364;9.566;2023-02-28T05:51:00;101374.94;;;-3.12;100.00
31681;BME280;18281;51.364;9.566;2023-02-28T05:53:26;101378.25;;;-3.18;100.00
31681;BME280;18281;51.364;9.566;2023-02-28T05:55:51;101373.19;;;-3.13;100.00
31681;BME280;18281;51.364;9.566;2023-02-28T05:58:17;101372.25;;;-3.17;100.00
31681;BME280;18281;51.364;9.566;2023-02-28T06:00:42;101376.53;;;-3.17;100.00
31681;BME280;18281;51.364;9.566;2023-02-28T06:03:08;101377.31;;;-3.20;100.00
31681;BME280;18281;51.364;9.566;2023-02-28T06:05:33;101376.47;;;-3.20;100.00
31681;BME280;18281;51.364;9.566;2023-02-28T06:07:58;101379.88;;;-3.20;100.00
31681;BME280;18281;51.364;9.566;2023-02-28T06:10:24;101382.59;;;-3.15;100.00
31681;BME280;18281;51.364;9.566;2023-02-28T06:12:49;101387.72;;;-3.15;100.00
31681;BME280;18281;51.364;9.566;2023-02-28T06:15:16;101385.97;;;-3.16;100.00
31681;BME280;18281;51.364;9.566;2023-02-28T06:17:43;101396.22;;;-3.18;100.00
31681;BME280;18281;51.364;9.566;2023-02-28T06:20:09;101398.78;;;-3.18;100.00
31681;BME280;18281;51.364;9.566;2023-02-28T06:22:37;101406.50;;;-3.18;100.00
31681;BME280;18281;51.364;9.566;2023-02-28T06:25:04;101396.13;;;-3.21;100.00
31681;BME280;18281;51.364;9.566;2023-02-28T06:27:30;101393.53;;;-3.22;100.00
31681;BME280;18281;51.364;9.566;2023-02-28T06:29:56;101402.97;;;-3.21;100.00
31681;BME280;18281;51.364;9.566;2023-02-28T06:32:21;101394.31;;;-3.25;100.00
31681;BME280;18281;51.364;9.566;2023-02-28T06:34:47;101400.38;;;-3.23;100.00
31681;BME280;18281;51.364;9.566;2023-02-28T06:37:12;101400.31;;;-3.26;100.00
31681;BME280;18281;51.364;9.566;2023-02-28T06:39:38;101397.66;;;-3.29;100.00
31681;BME280;18281;51.364;9.566;2023-02-28T06:42:03;101408.88;;;-3.25;100.00
31681;BME280;18281;51.364;9.566;2023-02-28T06:44:28;101407.19;;;-3.23;100.00
31681;BME280;18281;51.364;9.566;2023-02-28T06:47:00;101411.44;;;-3.25;100.00
31681;BME280;18281;51.364;9.566;2023-02-28T06:49:27;101409.69;;;-3.26;100.00
31681;BME280;18281;51.364;9.566;2023-02-28T06:51:53;101418.34;;;-3.23;100.00
31681;BME280;18281;51.364;9.566;2023-02-28T06:54:19;101414.00;;;-3.25;100.00
31681;BME280;18281;51.364;9.566;2023-02-28T06:56:44;101425.16;;;-3.25;100.00
31681;BME280;18281;51.364;9.566;2023-02-28T06:59:09;101424.31;;;-3.24;100.00
31681;BME280;18281;51.364;9.566;2023-02-28T07:01:35;101421.81;;;-3.21;100.00
31681;BME280;18281;51.364;9.566;2023-02-28T07:04:00;101426.94;;;-3.21;100.00
31681;BME280;18281;51.364;9.566;2023-02-28T07:06:26;101430.38;;;-3.22;100.00
31681;BME280;18281;51.364;9.566;2023-02-28T07:08:52;101419.41;;;-3.14;100.00
31681;BME280;18281;51.364;9.566;2023-02-28T07:11:19;101416.88;;;-3.13;100.00
31681;BME280;18281;51.364;9.566;2023-02-28T07:13:44;101417.06;;;-3.05;100.00
31681;BME280;18281;51.364;9.566;2023-02-28T07:16:11;101424.00;;;-3.01;100.00
31681;BME280;18281;51.364;9.566;2023-02-28T07:18:37;101416.38;;;-2.96;100.00
31681;BME280;18281;51.364;9.566;2023-02-28T07:21:04;101421.75;;;-2.87;100.00
31681;BME280;18281;51.364;9.566;2023-02-28T07:23:30;101419.38;;;-2.78;100.00
31681;BME280;18281;51.364;9.566;2023-02-28T07:25:55;101423.69;;;-2.77;100.00
31681;BME280;18281;51.364;9.566;2023-02-28T07:28:21;101422.91;;;-2.74;100.00
31681;BME280;18281;51.364;9.566;2023-02-28T07:30:46;101420.31;;;-2.74;100.00
31681;BME280;18281;51.364;9.566;2023-02-28T07:33:13;101421.25;;;-2.72;100.00
31681;BME280;18281;51.364;9.566;2023-02-28T07:35:38;101422.97;;;-2.70;100.00
31681;BME280;18281;51.364;9.566;2023-02-28T07:38:03;101425.81;;;-2.59;100.00
31681;BME280;18281;51.364;9.566;2023-02-28T07:40:29;101428.75;;;-2.40;100.00
31681;BME280;18281;51.364;9.566;2023-02-28T07:42:54;101421.50;;;-2.19;100.00
31681;BME280;18281;51.364;9.566;2023-02-28T07:45:20;101418.78;;;-2.25;100.00
31681;BME280;18281;51.364;9.566;2023-02-28T07:47:45;101424.00;;;-2.22;100.00
31681;BME280;18281;51.364;9.566;2023-02-28T07:50:13;101419.84;;;-2.15;100.00
31681;BME280;18281;51.364;9.566;2023-02-28T07:52:39;101425.28;;;-2.00;100.00
31681;BME280;18281;51.364;9.566;2023-02-28T07:55:07;101423.50;;;-2.04;100.00
31681;BME280;18281;51.364;9.566;2023-02-28T07:57:32;101419.56;;;-1.85;100.00
31681;BME280;18281;51.364;9.566;2023-02-28T07:59:58;101426.69;;;-1.71;100.00
31681;BME280;18281;51.364;9.566;2023-02-28T08:02:23;101424.28;;;-1.62;100.00
31681;BME280;18281;51.364;9.566;2023-02-28T08:04:48;101420.78;;;-1.64;96.55
31681;BME280;18281;51.364;9.566;2023-02-28T08:07:14;101424.59;;;-1.42;97.49
31681;BME280;18281;51.364;9.566;2023-02-28T08:09:40;101426.34;;;-1.41;95.08
31681;BME280;18281;51.364;9.566;2023-02-28T08:12:07;101422.28;;;-1.26;93.79
31681;BME280;18281;51.364;9.566;2023-02-28T08:14:33;101421.59;;;-1.16;93.56
31681;BME280;18281;51.364;9.566;2023-02-28T08:16:58;101411.28;;;-1.16;91.21
31681;BME280;18281;51.364;9.566;2023-02-28T08:19:23;101428.69;;;-1.00;91.11
31681;BME280;18281;51.364;9.566;2023-02-28T08:21:49;101419.31;;;-0.94;90.02
31681;BME280;18281;51.364;9.566;2023-02-28T08:24:14;101413.31;;;-0.95;87.75
31681;BME280;18281;51.364;9.566;2023-02-28T08:26:40;101414.47;;;-0.74;88.17
31681;BME280;18281;51.364;9.566;2023-02-28T08:29:05;101419.72;;;-0.67;87.41
31681;BME280;18281;51.364;9.566;2023-02-28T08:31:30;101417.28;;;-0.57;87.45
31681;BME280;18281;51.364;9.566;2023-02-28T08:33:56;101414.03;;;-0.42;87.87
31681;BME280;18281;51.364;9.566;2023-02-28T08:36:24;101416.69;;;-0.38;86.10
31681;BME280;18281;51.364;9.566;2023-02-28T08:38:50;101416.03;;;-0.20;85.06
31681;BME280;18281;51.364;9.566;2023-02-28T08:41:16;101417.75;;;-0.19;82.19
31681;BME280;18281;51.364;9.566;2023-02-28T08:43:42;101415.28;;;-0.09;81.16
31681;BME280;18281;51.364;9.566;2023-02-28T08:46:08;101416.22;;;-0.03;79.74
31681;BME280;18281;51.364;9.566;2023-02-28T08:48:35;101408.63;;;0.14;77.16
31681;BME280;18281;51.364;9.566;2023-02-28T08:51:15;101420.72;;;0.15;77.10
31681;BME280;18281;51.364;9.566;2023-02-28T08:53:47;101419.97;;;0.29;76.92
31681;BME280;18281;51.364;9.566;2023-02-28T08:56:15;101412.31;;;0.38;76.94
31681;BME280;18281;51.364;9.566;2023-02-28T08:58:42;101415.94;;;0.57;75.34
31681;BME280;18281;51.364;9.566;2023-02-28T09:01:16;101410.00;;;0.69;72.32
31681;BME280;18281;51.364;9.566;2023-02-28T09:03:43;101415.19;;;0.70;72.39
31681;BME280;18281;51.364;9.566;2023-02-28T09:06:10;101417.00;;;0.79;73.15
31681;BME280;18281;51.364;9.566;2023-02-28T09:08:36;101413.63;;;0.91;72.25
31681;BME280;18281;51.364;9.566;2023-02-28T09:11:02;101416.22;;;0.94;72.35
31681;BME280;18281;51.364;9.566;2023-02-28T09:13:29;101421.31;;;0.83;70.37
31681;BME280;18281;51.364;9.566;2023-02-28T09:15:57;101417.28;;;1.16;68.70
31681;BME280;18281;51.364;9.566;2023-02-28T09:18:22;101413.75;;;1.07;69.76
31681;BME280;18281;51.364;9.566;2023-02-28T09:20:48;101419.94;;;1.29;68.97
31681;BME280;18281;51.364;9.566;2023-02-28T09:23:13;101419.97;;;1.35;69.94
31681;BME280;18281;51.364;9.566;2023-02-28T09:25:46;101416.56;;;1.42;68.45
31681;BME280;18281;51.364;9.566;2023-02-28T09:28:12;101415.72;;;1.42;67.68
31681;BME280;18281;51.364;9.566;2023-02-28T09:30:37;101428.53;;;1.25;69.77
31681;BME280;18281;51.364;9.566;2023-02-28T09:33:03;101416.50;;;1.33;67.24
31681;BME280;18281;51.364;9.566;2023-02-28T09:35:29;101412.06;;;1.13;66.28
31681;BME280;18281;51.364;9.566;2023-02-28T09:37:56;101417.34;;;1.27;66.51
31681;BME280;18281;51.364;9.566;2023-02-28T09:40:24;101418.34;;;1.60;66.44
31681;BME280;18281;51.364;9.566;2023-02-28T09:42:52;101412.38;;;1.72;65.98
31681;BME280;18281;51.364;9.566;2023-02-28T09:47:50;101413.28;;;1.86;65.09
31681;BME280;18281;51.364;9.566;2023-02-28T09:52:52;101390.88;;;2.07;65.75
31681;BME280;18281;51.364;9.566;2023-02-28T09:57:44;101401.28;;;2.47;63.79
31681;BME280;18281;51.364;9.566;2023-02-28T10:00:18;101396.97;;;2.17;62.94
31681;BME280;18281;51.364;9.566;2023-02-28T10:02:55;101400.41;;;2.16;62.84
31681;BME280;18281;51.364;9.566;2023-02-28T10:05:31;101396.97;;;2.26;61.54
31681;BME280;18281;51.364;9.566;2023-02-28T10:08:03;101402.97;;;2.05;60.93
31681;BME280;18281;51.364;9.566;2023-02-28T10:13:14;101417.75;;;2.48;59.76
31681;BME280;18281;51.364;9.566;2023-02-28T10:15:41;101417.72;;;2.43;59.32
31681;BME280;18281;51.364;9.566;2023-02-28T10:18:13;101422.91;;;2.26;58.97
31681;BME280;18281;51.364;9.566;2023-02-28T10:20:41;101409.94;;;2.65;59.23
31681;BME280;18281;51.364;9.566;2023-02-28T10:23:14;101414.28;;;2.72;59.04
31681;BME280;18281;51.364;9.566;2023-02-28T10:25:45;101412.53;;;2.54;58.21
31681;BME280;18281;51.364;9.566;2023-02-28T10:28:15;101417.75;;;2.59;57.79
31681;BME280;18281;51.364;9.566;2023-02-28T10:30:45;101412.50;;;3.02;58.60
31681;BME280;18281;51.364;9.566;2023-02-28T10:35:52;101404.72;;;3.02;58.62
31681;BME280;18281;51.364;9.566;2023-02-28T10:38:38;101405.59;;;2.90;56.85
31681;BME280;18281;51.364;9.566;2023-02-28T10:41:08;101405.63;;;2.95;57.52
31681;BME280;18281;51.364;9.566;2023-02-28T10:43:35;101400.41;;;2.99;57.70
31681;BME280;18281;51.364;9.566;2023-02-28T10:48:50;101399.50;;;3.30;57.05
31681;BME280;18281;51.364;9.566;2023-02-28T10:51:22;101394.28;;;3.39;57.04
31681;BME280;18281;51.364;9.566;2023-02-28T10:53:50;101402.13;;;3.13;57.25
31681;BME280;18281;51.364;9.566;2023-02-28T10:56:23;101392.56;;;3.32;57.86
31681;BME280;18281;51.364;9.566;2023-02-28T11:03:55;101383.03;;;3.26;57.24
31681;BME280;18281;51.364;9.566;2023-02-28T11:06:25;101379.59;;;3.26;56.96
31681;BME280;18281;51.364;9.566;2023-02-28T11:08:52;101378.72;;;3.31;56.76
31681;BME280;18281;51.364;9.566;2023-02-28T11:11:20;101380.38;;;3.57;57.60
31681;BME280;18281;51.364;9.566;2023-02-28T11:13:48;101387.22;;;3.75;56.09
31681;BME280;18281;51.364;9.566;2023-02-28T11:16:15;101378.50;;;3.88;57.44
31681;BME280;18281;51.364;9.566;2023-02-28T11:18:53;101385.44;;;3.83;56.93
31681;BME280;18281;51.364;9.566;2023-02-28T11:23:50;101373.31;;;4.96;77.74
31681;BME280;18281;51.364;9.566;2023-02-28T11:29:03;101363.22;;;5.47;72.26
31681;BME280;18281;51.364;9.566;2023-02-28T11:31:33;101364.47;;;5.11;64.75
31681;BME280;18281;51.364;9.566;2023-02-28T11:33:59;101357.75;;;4.93;62.18
31681;BME280;18281;51.364;9.566;2023-02-28T11:36:28;101353.72;;;4.61;59.51
31681;BME280;18281;51.364;9.566;2023-02-28T11:38:54;101360.69;;;4.55;58.61
31681;BME280;18281;51.364;9.566;2023-02-28T11:46:58;101349.59;;;4.33;57.52
31681;BME280;18281;51.364;9.566;2023-02-28T11:49:33;101364.06;;;4.65;57.29
31681;BME280;18281;51.364;9.566;2023-02-28T11:52:14;101349.53;;;4.43;56.89
31681;BME280;18281;51.364;9.566;2023-02-28T11:57:43;101351.84;;;4.77;62.02
31681;BME280;18281;51.364;9.566;2023-02-28T12:00:33;101354.53;;;5.48;75.20
31681;BME280;18281;51.364;9.566;2023-02-28T12:13:54;101339.88;;;5.38;61.75
31681;BME280;18281;51.364;9.566;2023-02-28T12:19:43;101322.56;;;5.32;62.87
31681;BME280;18281;51.364;9.566;2023-02-28T12:25:19;101330.13;;;5.55;62.23
31681;BME280;18281;51.364;9.566;2023-02-28T12:27:47;101331.63;;;5.72;64.29
31681;BME280;18281;51.364;9.566;2023-02-28T12:30:19;101334.13;;;5.78;62.66
31681;BME280;18281;51.364;9.566;2023-02-28T12:33:08;101329.97;;;5.68;61.72
31681;BME280;18281;51.364;9.566;2023-02-28T12:40:44;101310.03;;;5.65;62.24
31681;BME280;18281;51.364;9.566;2023-02-28T12:43:13;101320.34;;;5.71;59.18
31681;BME280;18281;51.364;9.566;2023-02-28T12:45:53;101322.19;;;5.63;59.53
31681;BME280;18281;51.364;9.566;2023-02-28T12:48:28;101312.56;;;5.68;59.67
31681;BME280;18281;51.364;9.566;2023-02-28T12:50:54;101303.91;;;5.65;58.75
31681;BME280;18281;51.364;9.566;2023-02-28T12:58:39;101300.56;;;5.60;59.11
31681;BME280;18281;51.364;9.566;2023-02-28T13:04:13;101303.59;;;5.89;62.90
31681;BME280;18281;51.364;9.566;2023-02-28T13:09:15;101298.81;;;5.59;60.54
31681;BME280;18281;51.364;9.566;2023-02-28T13:11:46;101293.72;;;5.49;61.59
31681;BME280;18281;51.364;9.566;2023-02-28T13:17:01;101292.81;;;6.11;67.61
31681;BME280;18281;51.364;9.566;2023-02-28T13:19:30;101287.00;;;6.45;67.33
31681;BME280;18281;51.364;9.566;2023-02-28T13:21:57;101289.03;;;6.31;67.03
31681;BME280;18281;51.364;9.566;2023-02-28T13:27:20;101285.44;;;6.36;66.27
31681;BME280;18281;51.364;9.566;2023-02-28T13:29:51;101286.50;;;6.24;65.34
31681;BME280;18281;51.364;9.566;2023-02-28T13:39:56;101278.06;;;6.09;61.86
31681;BME280;18281;51.364;9.566;2023-02-28T13:47:29;101268.34;;;6.18;68.47
31681;BME280;18281;51.364;9.566;2023-02-28T13:50:19;101270.91;;;6.21;69.49
31681;BME280;18281;51.364;9.566;2023-02-28T13:55:29;101263.72;;;6.34;69.09
31681;BME280;18281;51.364;9.566;2023-02-28T13:58:34;101267.00;;;6.46;69.73
31681;BME280;18281;51.364;9.566;2023-02-28T14:06:26;101261.28;;;6.25;69.46
31681;BME280;18281;51.364;9.566;2023-02-28T14:09:35;101259.94;;;6.01;65.00
31681;BME280;18281;51.364;9.566;2023-02-28T14:17:56;101251.44;;;5.89;68.91
31681;BME280;18281;51.364;9.566;2023-02-28T14:20:25;101245.59;;;5.75;67.61
31681;BME280;18281;51.364;9.566;2023-02-28T14:23:10;101251.97;;;5.55;65.78
31681;BME280;18281;51.364;9.566;2023-02-28T14:31:52;101248.25;;;5.06;61.89
31681;BME280;18281;51.364;9.566;2023-02-28T14:37:13;101247.13;;;4.53;58.10
31681;BME280;18281;51.364;9.566;2023-02-28T14:39:41;101245.66;;;4.24;56.89
31681;BME280;18281;51.364;9.566;2023-02-28T14:42:34;101246.66;;;4.09;58.23
31681;BME280;18281;51.364;9.566;2023-02-28T14:45:01;101249.34;;;4.03;58.89
31681;BME280;18281;51.364;9.566;2023-02-28T14:47:30;101243.31;;;3.99;58.36
31681;BME280;18281;51.364;9.566;2023-02-28T14:49:58;101245.06;;;3.99;58.26
31681;BME280;18281;51.364;9.566;2023-02-28T14:52:26;101244.19;;;3.97;58.59
31681;BME280;18281;51.364;9.566;2023-02-28T14:55:04;101241.72;;;3.80;58.04
31681;BME280;18281;51.364;9.566;2023-02-28T14:57:35;101232.34;;;3.55;57.87
31681;BME280;18281;51.364;9.566;2023-02-28T15:00:20;101235.91;;;3.45;57.86
31681;BME280;18281;51.364;9.566;2023-02-28T15:02:45;101237.66;;;3.32;57.72
31681;BME280;18281;51.364;9.566;2023-02-28T15:07:46;101248.06;;;3.26;59.46
31681;BME280;18281;51.364;9.566;2023-02-28T15:10:19;101242.06;;;3.16;59.00
31681;BME280;18281;51.364;9.566;2023-02-28T15:15:21;101242.13;;;3.01;58.89
31681;BME280;18281;51.364;9.566;2023-02-28T15:17:52;101248.22;;;2.98;59.31
31681;BME280;18281;51.364;9.566;2023-02-28T15:20:19;101243.81;;;3.11;58.38
31681;BME280;18281;51.364;9.566;2023-02-28T15:22:46;101246.50;;;2.97;58.40
31681;BME280;18281;51.364;9.566;2023-02-28T15:25:15;101244.69;;;3.10;59.52
31681;BME280;18281;51.364;9.566;2023-02-28T15:27:46;101242.16;;;3.02;58.38